Time;durP1;ratioP1;P1;durP2;ratioP2;P2;SDS_P1;SDS_P2;PMS_P1;PMS_P2;Temp;Humidity;BMP_temperature;BMP_pressure;BME280_temperature;BME280_humidity;BME280_pressure;Samples;Min_cycle;Max_cycle;Signal;HPM_P1;HPM_P2
2022/05/28 00:00:19;;;;;;;96.75;6.65;;;41.10;18.50;;;;;;4954427;28;20067;-65
2022/05/28 00:02:46;;;;;;;58.88;5.10;;;41.10;18.80;;;;;;4957589;28;20426;-65
2022/05/28 00:05:13;;;;;;;32.05;4.35;;;41.10;19.00;;;;;;4940518;28;20118;-65
2022/05/28 00:07:41;;;;;;;30.80;3.80;;;41.00;19.30;;;;;;4954141;28;20027;-66
2022/05/28 00:10:13;;;;;;;24.45;3.13;;;41.00;19.20;;;;;;4970999;28;20035;-65
2022/05/28 00:12:40;;;;;;;30.98;3.65;;;41.00;19.30;;;;;;4973714;28;20077;-66
2022/05/28 00:15:08;;;;;;;18.23;3.00;;;40.80;18.80;;;;;;4954563;28;20069;-66
2022/05/28 00:17:35;;;;;;;28.75;3.25;;;41.00;19.20;;;;;;4954137;28;20058;-69
2022/05/28 00:20:03;;;;;;;23.73;3.08;;;40.90;19.20;;;;;;4955247;28;20038;-66
2022/05/28 00:22:29;;;;;;;20.55;3.10;;;40.80;19.10;;;;;;4952948;28;20585;-67
2022/05/28 00:25:22;;;;;;;26.77;3.95;;;40.80;19.10;;;;;;4953725;28;20035;-65
2022/05/28 00:27:48;;;;;;;21.13;3.53;;;40.90;18.90;;;;;;4969760;28;20517;-66
2022/05/28 00:30:17;;;;;;;17.23;3.05;;;40.80;19.40;;;;;;4954228;28;20491;-65
2022/05/28 00:32:44;;;;;;;37.40;4.28;;;40.80;19.40;;;;;;4954785;28;20074;-71
2022/05/28 00:35:18;;;;;;;53.38;5.80;;;40.60;19.90;;;;;;4973961;28;20033;-65
2022/05/28 00:37:46;;;;;;;25.60;4.03;;;40.60;19.90;;;;;;4968989;28;20038;-64
2022/05/28 00:40:18;;;;;;;19.92;3.55;;;40.50;19.60;;;;;;4969409;28;20189;-64
2022/05/28 00:42:44;;;;;;;23.17;2.95;;;40.60;19.60;;;;;;4954895;28;20026;-65
2022/05/28 00:45:11;;;;;;;14.93;3.10;;;40.50;20.20;;;;;;4953492;28;20382;-68
2022/05/28 00:47:42;;;;;;;45.33;4.63;;;40.50;20.30;;;;;;4950596;28;20025;-66
2022/05/28 00:50:10;;;;;;;256.25;19.10;;;40.20;20.30;;;;;;4955522;28;20088;-65
2022/05/28 00:52:36;;;;;;;39.35;4.60;;;40.10;20.20;;;;;;4953932;28;20520;-66
2022/05/28 00:55:04;;;;;;;20.95;3.13;;;40.00;20.90;;;;;;4953633;28;20034;-64
2022/05/28 00:57:30;;;;;;;57.67;5.70;;;39.80;20.70;;;;;;4971273;28;20027;-65
2022/05/28 00:59:58;;;;;;;52.97;5.50;;;39.60;21.30;;;;;;4952973;28;20037;-65
2022/05/28 01:03:03;;;;;;;44.88;4.90;;;39.40;21.10;;;;;;4953830;28;20081;-66
2022/05/28 01:05:30;;;;;;;26.73;3.42;;;39.20;21.20;;;;;;4954077;28;20035;-63
2022/05/28 01:08:19;;;;;;;17.05;3.63;;;39.00;21.30;;;;;;4953738;28;20063;-64
2022/05/28 01:11:05;;;;;;;24.33;2.55;;;39.00;21.70;;;;;;4969842;28;20050;-63
2022/05/28 01:13:57;;;;;;;26.03;3.43;;;38.90;21.30;;;;;;4957092;28;20060;-66
2022/05/28 01:16:38;;;;;;;39.42;4.45;;;38.80;23.70;;;;;;4955455;28;20042;-64
2022/05/28 01:19:11;;;;;;;30.67;3.47;;;38.40;25.30;;;;;;4955443;28;20077;-65
2022/05/28 01:21:46;;;;;;;14.48;2.75;;;37.90;24.80;;;;;;4955482;28;20605;-65
2022/05/28 01:24:21;;;;;;;25.10;3.10;;;;;;;;;;4969327;28;20051;-65
2022/05/28 01:27:09;;;;;;;12.17;2.37;;;37.70;34.50;;;;;;4953400;28;20285;-63
2022/05/28 01:29:42;;;;;;;14.07;2.67;;;37.40;26.30;;;;;;4969824;28;20042;-64
2022/05/28 01:32:09;;;;;;;12.95;2.35;;;;;;;;;;4953925;28;20042;-66
2022/05/28 01:34:36;;;;;;;24.65;3.22;;;;;;;;;;4949295;28;20428;-65
2022/05/28 01:37:03;;;;;;;20.33;2.58;;;;;;;;;;4969854;28;20030;-66
2022/05/28 01:39:30;;;;;;;16.45;2.83;;;;;;;;;;4953132;28;20455;-64
2022/05/28 01:41:57;;;;;;;17.08;2.80;;;;;;;;;;4951903;28;20030;-64
2022/05/28 01:44:24;;;;;;;20.52;3.10;;;;;;;;;;4954406;28;20019;-67
2022/05/28 01:46:51;;;;;;;24.70;2.72;;;;;;;;;;4968197;28;20471;-65
2022/05/28 01:49:20;;;;;;;23.15;3.35;;;36.60;29.40;;;;;;4953558;28;20034;-64
2022/05/28 01:52:01;;;;;;;12.38;2.55;;;36.20;46.20;;;;;;4955277;28;20031;-63
2022/05/28 01:54:33;;;;;;;15.60;2.95;;;36.40;22.00;;;;;;4970241;28;20241;-63
2022/05/28 01:56:59;;;;;;;9.32;2.65;;;36.50;50.50;;;;;;4954935;28;20451;-65
2022/05/28 01:59:28;;;;;;;21.42;3.42;;;36.30;21.90;;;;;;4953618;28;20030;-67
2022/05/28 02:01:56;;;;;;;14.00;3.03;;;36.10;29.40;;;;;;4970475;28;20085;-65
2022/05/28 02:04:23;;;;;;;12.93;3.13;;;36.70;36.10;;;;;;4953814;28;20027;-65
2022/05/28 02:06:50;;;;;;;16.40;3.00;;;36.40;22.40;;;;;;4971441;28;20027;-64
2022/05/28 02:09:22;;;;;;;32.08;4.40;;;36.40;20.60;;;;;;4953647;28;20461;-64
2022/05/28 02:12:06;;;;;;;18.85;3.20;;;36.50;25.90;;;;;;4937063;28;20050;-64
2022/05/28 02:15:34;;;;;;;27.98;3.40;;;36.20;20.20;;;;;;4969130;28;20490;-68
2022/05/28 02:18:25;;;;;;;20.85;4.03;;;36.10;19.70;;;;;;4859082;29;20482;-64
2022/05/28 02:21:09;;;;;;;15.48;3.58;;;35.90;21.10;;;;;;4952804;28;20026;-65
2022/05/28 02:23:46;;;;;;;24.27;4.80;;;35.90;32.10;;;;;;4953747;28;20023;-65
2022/05/28 02:26:29;;;;;;;22.75;3.58;;;35.90;25.30;;;;;;4952702;28;20031;-67
2022/05/28 02:28:56;;;;;;;21.23;3.25;;;;;;;;;;4953258;28;20502;-67
2022/05/28 02:31:27;;;;;;;13.38;2.35;;;;;;;;;;4978673;28;20035;-67
2022/05/28 02:33:54;;;;;;;34.88;3.92;;;35.70;33.60;;;;;;4953714;28;20023;-68
2022/05/28 02:36:21;;;;;;;32.80;3.10;;;;;;;;;;4951418;28;20055;-67
2022/05/28 02:38:47;;;;;;;20.30;2.95;;;35.10;49.50;;;;;;4934578;28;20495;-68
2022/05/28 02:41:14;;;;;;;31.65;4.25;;;35.10;29.10;;;;;;4951342;28;20091;-69
2022/05/28 02:43:41;;;;;;;20.35;3.20;;;34.60;58.50;;;;;;4952212;28;20049;-68
2022/05/28 02:46:08;;;;;;;11.35;2.92;;;;;;;;;;4952452;28;20023;-69
2022/05/28 02:48:35;;;;;;;14.63;2.85;;;;;;;;;;4970884;28;20092;-70
2022/05/28 02:51:02;;;;;;;15.77;2.60;;;;;;;;;;4951244;28;20363;-66
2022/05/28 02:53:29;;;;;;;17.88;3.30;;;34.80;19.90;;;;;;4968964;28;20086;-68
2022/05/28 02:55:55;;;;;;;13.73;2.90;;;34.40;20.00;;;;;;4950149;28;20121;-68
2022/05/28 02:58:22;;;;;;;20.48;3.72;;;34.60;28.80;;;;;;4970010;28;20066;-66
2022/05/28 03:00:48;;;;;;;14.73;2.95;;;34.60;21.70;;;;;;4954741;28;20026;-67
2022/05/28 03:03:19;;;;;;;11.38;3.28;;;34.40;31.30;;;;;;4955939;28;20027;-66
2022/05/28 03:05:50;;;;;;;20.10;3.17;;;34.40;24.00;;;;;;4956529;28;20029;-64
2022/05/28 03:08:17;;;;;;;16.95;3.30;;;34.40;21.50;;;;;;4957772;28;20054;-65
2022/05/28 03:10:44;;;;;;;15.60;3.85;;;34.30;22.30;;;;;;4973087;28;20075;-65
2022/05/28 03:13:11;;;;;;;16.40;3.08;;;34.20;21.10;;;;;;4958528;28;20073;-65
2022/05/28 03:15:38;;;;;;;17.60;3.30;;;34.00;32.70;;;;;;4939642;28;20074;-65
2022/05/28 03:18:04;;;;;;;12.73;2.80;;;;;;;;;;4955939;28;20430;-67
2022/05/28 03:20:31;;;;;;;9.85;3.30;;;33.90;21.40;;;;;;4973868;28;20033;-67
2022/05/28 03:22:58;;;;;;;13.05;4.15;;;33.90;21.70;;;;;;4939586;28;20094;-65
2022/05/28 03:25:25;;;;;;;12.55;3.88;;;33.80;21.50;;;;;;4955729;28;20051;-66
2022/05/28 03:27:51;;;;;;;15.35;3.58;;;33.70;21.30;;;;;;4955887;28;20461;-66
2022/05/28 03:30:18;;;;;;;19.20;3.75;;;33.70;21.40;;;;;;4955970;28;20180;-66
2022/05/28 03:32:44;;;;;;;16.83;4.22;;;33.70;21.60;;;;;;4955825;28;20104;-65
2022/05/28 03:35:10;;;;;;;18.73;4.13;;;33.60;21.30;;;;;;4955328;28;20078;-67
2022/05/28 03:37:37;;;;;;;15.48;3.30;;;33.50;21.70;;;;;;4955142;28;20085;-66
2022/05/28 03:40:04;;;;;;;21.98;4.40;;;33.50;21.30;;;;;;4971509;28;20052;-66
2022/05/28 03:42:31;;;;;;;26.10;4.40;;;33.40;22.20;;;;;;4952918;28;20463;-68
2022/05/28 03:44:57;;;;;;;17.65;4.45;;;33.30;23.40;;;;;;4955249;28;20059;-66
2022/05/28 03:47:23;;;;;;;37.47;3.83;;;33.20;23.20;;;;;;4953664;28;20063;-65
2022/05/28 03:49:50;;;;;;;12.57;2.20;;;33.10;22.00;;;;;;4953304;28;20068;-66
2022/05/28 03:52:16;;;;;;;16.85;2.67;;;33.10;21.70;;;;;;4952286;28;20095;-67
2022/05/28 03:54:44;;;;;;;13.85;2.60;;;33.10;22.20;;;;;;4970453;28;20129;-68
2022/05/28 03:57:33;;;;;;;16.85;2.83;;;33.10;22.00;;;;;;4951437;28;20088;-67
2022/05/28 04:00:01;;;;;;;21.08;3.03;;;32.90;23.00;;;;;;4953129;28;20080;-67
2022/05/28 04:02:27;;;;;;;14.10;2.65;;;32.80;23.60;;;;;;4954044;28;20100;-66
2022/05/28 04:04:54;;;;;;;11.15;3.35;;;32.80;23.70;;;;;;4955455;28;20068;-66
2022/05/28 04:07:21;;;;;;;17.05;3.90;;;32.70;24.50;;;;;;4954951;28;20074;-67
2022/05/28 04:09:47;;;;;;;17.77;3.30;;;32.60;24.90;;;;;;4954550;28;20479;-65
2022/05/28 04:12:14;;;;;;;16.75;3.10;;;32.50;25.60;;;;;;4971360;28;20068;-65
2022/05/28 04:14:40;;;;;;;23.75;2.92;;;32.40;26.00;;;;;;4958092;28;20077;-65
2022/05/28 04:17:07;;;;;;;27.00;3.08;;;32.20;26.20;;;;;;4955124;28;20073;-65
2022/05/28 04:19:33;;;;;;;15.50;2.55;;;32.10;26.40;;;;;;4955838;28;20192;-66
2022/05/28 04:22:00;;;;;;;15.02;2.85;;;32.00;26.50;;;;;;4974451;28;20063;-67
2022/05/28 04:24:27;;;;;;;17.77;3.58;;;31.90;27.00;;;;;;4954050;28;20053;-67
2022/05/28 04:26:53;;;;;;;18.05;2.70;;;31.90;26.70;;;;;;4972329;28;20549;-67
2022/05/28 04:29:19;;;;;;;21.85;3.30;;;31.80;27.40;;;;;;4955354;28;20487;-67
2022/05/28 04:31:46;;;;;;;25.42;3.50;;;31.70;27.80;;;;;;4954656;28;20059;-66
2022/05/28 04:34:12;;;;;;;26.25;3.50;;;31.50;26.70;;;;;;4954432;28;20556;-66
2022/05/28 04:36:38;;;;;;;17.13;3.65;;;31.50;32.80;;;;;;4971544;28;20114;-67
2022/05/28 04:39:05;;;;;;;24.95;3.83;;;31.40;27.70;;;;;;4954245;28;20085;-67
2022/05/28 04:41:31;;;;;;;23.42;3.75;;;31.40;32.10;;;;;;4970090;28;20096;-67
2022/05/28 04:43:58;;;;;;;16.02;3.28;;;31.10;27.00;;;;;;4951590;28;20058;-67
2022/05/28 04:46:24;;;;;;;15.25;2.72;;;31.10;27.40;;;;;;4954496;28;20092;-67
2022/05/28 04:48:51;;;;;;;16.15;2.90;;;31.10;27.50;;;;;;4954149;28;20082;-67
2022/05/28 04:51:17;;;;;;;15.38;3.17;;;31.10;27.00;;;;;;4954879;28;20109;-66
2022/05/28 04:53:44;;;;;;;15.93;3.03;;;31.10;27.50;;;;;;4937780;28;20209;-66
2022/05/28 04:56:10;;;;;;;15.20;2.85;;;31.10;27.00;;;;;;4954022;28;20152;-67
2022/05/28 04:58:36;;;;;;;11.90;2.80;;;31.10;27.20;;;;;;4969018;28;20116;-66
2022/05/28 05:01:03;;;;;;;11.73;3.28;;;31.00;27.30;;;;;;4954844;28;20633;-67
2022/05/28 05:03:29;;;;;;;14.90;3.42;;;31.00;27.50;;;;;;4955312;28;20143;-66
2022/05/28 05:05:55;;;;;;;15.10;2.97;;;31.00;28.10;;;;;;4953451;28;20067;-67
2022/05/28 05:08:22;;;;;;;19.27;2.72;;;30.90;27.70;;;;;;4971039;28;20031;-68
2022/05/28 05:10:48;;;;;;;17.50;3.17;;;30.90;27.50;;;;;;4954109;28;20136;-67
2022/05/28 05:13:15;;;;;;;18.17;3.17;;;30.80;27.10;;;;;;4971169;28;20068;-67
2022/05/28 05:15:41;;;;;;;13.50;2.42;;;30.70;27.30;;;;;;4953114;28;20081;-68
2022/05/28 05:18:08;;;;;;;12.48;3.00;;;30.70;27.40;;;;;;4955525;28;20122;-66
2022/05/28 05:20:35;;;;;;;19.55;3.60;;;30.70;27.80;;;;;;4955667;28;20152;-68
2022/05/28 05:23:05;;;;;;;12.77;3.03;;;30.70;27.30;;;;;;4953468;28;20452;-67
2022/05/28 05:25:32;;;;;;;24.60;2.92;;;30.60;27.50;;;;;;4937784;28;20176;-66
2022/05/28 05:27:59;;;;;;;13.23;2.70;;;30.50;28.60;;;;;;4968856;28;20172;-67
2022/05/28 05:30:26;;;;;;;14.90;2.92;;;30.50;28.30;;;;;;4954397;28;20050;-67
2022/05/28 05:32:52;;;;;;;28.58;3.72;;;30.50;28.20;;;;;;4953480;28;20064;-66
2022/05/28 05:35:19;;;;;;;16.08;2.83;;;30.40;27.70;;;;;;4952458;28;20068;-69
2022/05/28 05:37:45;;;;;;;19.45;2.95;;;30.40;27.40;;;;;;4970031;28;20095;-67
2022/05/28 05:40:13;;;;;;;20.38;3.30;;;30.30;27.90;;;;;;4953345;28;20054;-66
2022/05/28 05:42:43;;;;;;;21.73;3.80;;;30.30;28.30;;;;;;4968637;28;20057;-66
2022/05/28 05:45:10;;;;;;;43.65;19.40;;;30.20;28.90;;;;;;4969291;28;20521;-68
2022/05/28 05:47:36;;;;;;;16.48;8.30;;;30.20;28.70;;;;;;4953797;28;20078;-68
2022/05/28 05:50:03;;;;;;;14.20;4.20;;;30.10;28.30;;;;;;4971330;28;20924;-65
2022/05/28 05:52:30;;;;;;;17.33;3.45;;;30.00;28.40;;;;;;4937788;28;20094;-66
2022/05/28 05:54:56;;;;;;;15.40;3.65;;;29.90;28.30;;;;;;4953093;28;20542;-66
2022/05/28 05:57:23;;;;;;;15.98;2.78;;;29.90;28.70;;;;;;4953172;28;20076;-66
2022/05/28 05:59:50;;;;;;;20.10;3.33;;;29.80;29.50;;;;;;4952982;28;20124;-65
2022/05/28 06:02:16;;;;;;;15.27;3.35;;;29.80;29.30;;;;;;4954911;28;20077;-69
2022/05/28 06:04:43;;;;;;;15.98;3.00;;;29.60;28.80;;;;;;4956130;28;20155;-66
2022/05/28 06:07:09;;;;;;;15.45;2.53;;;29.50;29.00;;;;;;4955292;28;20552;-66
2022/05/28 06:09:36;;;;;;;14.80;2.75;;;29.50;29.20;;;;;;4955863;28;20538;-66
2022/05/28 06:12:02;;;;;;;18.30;4.13;;;29.50;29.50;;;;;;4954318;28;20094;-65
2022/05/28 06:14:29;;;;;;;19.65;5.63;;;29.40;28.80;;;;;;4972086;28;20534;-67
2022/05/28 06:16:55;;;;;;;17.02;5.60;;;29.40;29.00;;;;;;4957237;28;20113;-66
2022/05/28 06:19:21;;;;;;;27.50;6.18;;;29.30;29.10;;;;;;4957493;28;20222;-67
2022/05/28 06:21:48;;;;;;;15.50;5.53;;;29.30;28.90;;;;;;4921055;28;20129;-67
2022/05/28 06:24:14;;;;;;;20.77;5.45;;;29.20;29.20;;;;;;4956508;28;20066;-66
2022/05/28 06:26:41;;;;;;;17.52;4.10;;;29.20;29.70;;;;;;4969262;28;20078;-66
2022/05/28 06:29:07;;;;;;;14.57;4.22;;;29.20;29.80;;;;;;4956156;28;20472;-65
2022/05/28 06:31:34;;;;;;;11.52;4.18;;;29.10;29.20;;;;;;4954245;28;20547;-66
2022/05/28 06:34:00;;;;;;;17.08;4.45;;;29.10;29.20;;;;;;4956543;28;20077;-65
2022/05/28 06:36:26;;;;;;;10.02;3.72;;;29.00;29.20;;;;;;4953997;28;20225;-65
2022/05/28 06:38:53;;;;;;;20.00;2.72;;;29.00;29.40;;;;;;4971150;28;20108;-66
2022/05/28 06:41:19;;;;;;;12.18;2.55;;;28.90;29.00;;;;;;4954273;28;20089;-66
2022/05/28 06:43:45;;;;;;;18.13;3.15;;;28.90;28.80;;;;;;4936495;28;20988;-66
2022/05/28 06:46:12;;;;;;;9.40;2.15;;;28.80;28.80;;;;;;4967827;28;20066;-67
2022/05/28 06:48:38;;;;;;;13.10;2.45;;;28.80;29.50;;;;;;4969225;28;20102;-65
2022/05/28 06:51:06;;;;;;;14.50;2.65;;;28.90;29.70;;;;;;4973207;28;20128;-67
2022/05/28 06:53:35;;;;;;;12.98;2.80;;;28.90;29.10;;;;;;4970412;28;20156;-65
2022/05/28 06:56:01;;;;;;;8.35;2.53;;;28.80;28.90;;;;;;4954443;28;20097;-66
2022/05/28 06:58:28;;;;;;;13.30;2.72;;;28.80;28.90;;;;;;4953884;28;20119;-66
2022/05/28 07:00:55;;;;;;;13.25;2.58;;;28.70;29.10;;;;;;4970761;28;20433;-65
2022/05/28 07:03:25;;;;;;;11.95;2.33;;;28.70;29.90;;;;;;4970203;28;20089;-65
2022/05/28 07:05:53;;;;;;;13.48;2.78;;;28.70;29.80;;;;;;4954072;28;20414;-65
2022/05/28 07:08:19;;;;;;;11.20;2.78;;;28.60;30.00;;;;;;4954788;28;20196;-68
2022/05/28 07:10:49;;;;;;;13.45;2.58;;;28.60;29.90;;;;;;4954408;28;20090;-66
2022/05/28 07:13:16;;;;;;;10.35;2.60;;;28.80;29.70;;;;;;4938816;28;20171;-68
2022/05/28 07:15:42;;;;;;;9.77;2.50;;;29.10;29.80;;;;;;4954881;28;20183;-68
2022/05/28 07:18:09;;;;;;;12.70;2.50;;;29.20;30.40;;;;;;4954957;28;20180;-67
2022/05/28 07:20:36;;;;;;;11.68;3.22;;;29.20;30.20;;;;;;4955650;28;20453;-67
2022/05/28 07:23:11;;;;;;;14.77;2.63;;;29.20;30.00;;;;;;4955261;28;20069;-67
2022/05/28 07:25:38;;;;;;;15.43;3.42;;;29.20;29.80;;;;;;4937399;28;20548;-67
2022/05/28 07:28:24;;;;;;;16.70;3.42;;;29.20;29.50;;;;;;4955082;28;20102;-66
2022/05/28 07:30:55;;;;;;;17.70;3.33;;;29.20;29.40;;;;;;4953822;28;20086;-66
2022/05/28 07:33:22;;;;;;;22.88;3.08;;;29.20;29.80;;;;;;4953136;28;20499;-68
2022/05/28 07:35:48;;;;;;;22.60;3.70;;;29.30;30.40;;;;;;4954393;28;20073;-67
2022/05/28 07:38:15;;;;;;;17.50;3.50;;;29.30;30.00;;;;;;4969169;28;20566;-68
2022/05/28 07:40:41;;;;;;;16.30;2.50;;;29.30;29.90;;;;;;4954054;28;20070;-67
2022/05/28 07:43:08;;;;;;;16.75;3.65;;;29.40;29.80;;;;;;4949904;28;20554;-67
2022/05/28 07:45:41;;;;;;;11.35;2.90;;;29.30;29.60;;;;;;4953645;28;20173;-67
2022/05/28 07:48:08;;;;;;;14.13;3.10;;;29.10;29.70;;;;;;4939255;28;20140;-67
2022/05/28 07:50:35;;;;;;;14.43;3.30;;;29.00;29.90;;;;;;4958310;28;20116;-67
2022/05/28 07:53:02;;;;;;;27.02;4.97;;;29.00;30.30;;;;;;4972994;28;20074;-67
2022/05/28 07:55:29;;;;;;;18.42;4.65;;;28.90;31.70;;;;;;4957302;28;20082;-66
2022/05/28 07:57:56;;;;;;;37.47;6.32;;;29.00;33.30;;;;;;4959497;28;20071;-68
2022/05/28 08:00:23;;;;;;;19.35;5.13;;;29.10;34.10;;;;;;4957483;28;20093;-67
2022/05/28 08:02:50;;;;;;;23.90;4.60;;;28.90;34.50;;;;;;4957713;28;20101;-67
2022/05/28 08:05:16;;;;;;;22.50;4.05;;;28.80;35.10;;;;;;4958219;28;20157;-67
2022/05/28 08:07:43;;;;;;;20.73;3.60;;;28.70;35.30;;;;;;4957142;28;20172;-68
2022/05/28 08:10:09;;;;;;;13.77;3.53;;;28.70;35.50;;;;;;4958590;28;20456;-69
2022/05/28 08:12:36;;;;;;;15.95;3.83;;;28.40;35.60;;;;;;4940219;28;20164;-68
2022/05/28 08:15:03;;;;;;;17.58;3.92;;;28.20;36.30;;;;;;4973046;28;20077;-68
2022/05/28 08:17:31;;;;;;;20.77;4.05;;;28.20;37.00;;;;;;4956681;28;20074;-68
2022/05/28 08:19:58;;;;;;;18.45;3.78;;;28.00;37.60;;;;;;4957178;28;20560;-67
2022/05/28 08:25:09;;;;;;;15.25;3.70;;;27.80;38.40;;;;;;4973335;28;20153;-68
2022/05/28 08:27:37;;;;;;;18.80;3.70;;;27.90;38.30;;;;;;4973378;28;20137;-68
2022/05/28 08:30:04;;;;;;;16.55;3.70;;;27.80;38.10;;;;;;4953183;28;20177;-69
2022/05/28 08:32:31;;;;;;;18.67;4.03;;;27.70;38.50;;;;;;4953669;28;20233;-69
2022/05/28 08:34:57;;;;;;;18.65;3.50;;;27.80;38.80;;;;;;4954940;28;20074;-68
2022/05/28 08:37:23;;;;;;;21.35;3.78;;;27.80;38.40;;;;;;4955617;28;20077;-68
2022/05/28 08:39:50;;;;;;;19.70;3.92;;;27.90;38.40;;;;;;4952993;28;20087;-68
2022/05/28 08:42:20;;;;;;;18.85;3.90;;;27.90;37.60;;;;;;4952850;28;20071;-67
2022/05/28 08:44:48;;;;;;;18.02;3.78;;;28.00;37.70;;;;;;4937111;28;20078;-67
2022/05/28 08:47:27;;;;;;;21.00;4.15;;;27.80;37.10;;;;;;4934847;28;20070;-68
2022/05/28 08:49:54;;;;;;;20.13;3.45;;;27.80;37.30;;;;;;4954751;28;20553;-68
2022/05/28 08:52:26;;;;;;;26.23;3.83;;;27.80;37.00;;;;;;4951921;28;20073;-69
2022/05/28 08:55:09;;;;;;;18.10;3.40;;;27.90;37.20;;;;;;4951476;28;20078;-68
2022/05/28 08:57:54;;;;;;;15.57;3.70;;;27.90;37.00;;;;;;4933826;28;20097;-69
2022/05/28 09:00:41;;;;;;;15.93;3.55;;;27.80;35.80;;;;;;4952149;28;20075;-67
2022/05/28 09:03:09;;;;;;;13.07;3.00;;;27.70;35.90;;;;;;4952384;28;20078;-68
2022/05/28 09:05:50;;;;;;;12.32;2.80;;;27.70;35.50;;;;;;4938026;28;20154;-68
2022/05/28 09:08:28;;;;;;;15.40;2.80;;;27.70;35.50;;;;;;4958579;28;20160;-68
2022/05/28 09:10:57;;;;;;;15.77;3.15;;;27.70;34.70;;;;;;4953146;28;20118;-68
2022/05/28 09:13:48;;;;;;;16.95;2.78;;;27.70;34.60;;;;;;4953612;28;20211;-69
2022/05/28 09:16:25;;;;;;;14.38;3.40;;;27.60;33.90;;;;;;4937421;28;20104;-68
2022/05/28 09:18:54;;;;;;;12.38;2.55;;;27.40;33.50;;;;;;4953328;28;20140;-69
2022/05/28 09:21:24;;;;;;;12.70;2.53;;;27.30;33.60;;;;;;4952643;28;20150;-69
2022/05/28 09:24:02;;;;;;;12.52;2.80;;;27.30;33.60;;;;;;4952338;28;20478;-68
2022/05/28 09:26:47;;;;;;;14.15;2.70;;;27.30;33.40;;;;;;4954020;28;20070;-69
2022/05/28 09:29:20;;;;;;;16.30;2.72;;;27.40;33.60;;;;;;4937031;28;20132;-68
2022/05/28 09:32:05;;;;;;;14.63;2.80;;;27.40;34.00;;;;;;4953727;28;20082;-68
2022/05/28 09:35:02;;;;;;;13.60;2.60;;;27.40;33.60;;;;;;4953335;28;20070;-68
2022/05/28 09:37:34;;;;;;;18.08;3.47;;;27.10;33.20;;;;;;4953038;28;20079;-68
2022/05/28 09:40:35;;;;;;;12.93;2.70;;;27.20;33.10;;;;;;4950354;28;20091;-68
2022/05/28 09:43:35;;;;;;;15.77;3.40;;;27.20;33.50;;;;;;4893578;29;20083;-68
2022/05/28 09:46:21;;;;;;;16.80;3.97;;;26.90;33.50;;;;;;4893793;29;20080;-68
2022/05/28 09:49:05;;;;;;;21.00;3.20;;;26.80;33.10;;;;;;4877008;29;20695;-68
2022/05/28 09:51:34;;;;;;;16.55;3.35;;;26.80;33.50;;;;;;4879475;29;20110;-67
2022/05/28 09:54:27;;;;;;;19.08;3.67;;;26.80;34.30;;;;;;4893860;29;20088;-67
2022/05/28 09:57:21;;;;;;;16.65;3.75;;;26.80;35.30;;;;;;4893933;29;20084;-67
2022/05/28 10:00:03;;;;;;;18.73;3.75;;;26.80;33.90;;;;;;4878121;29;20117;-67
2022/05/28 10:02:41;;;;;;;21.48;4.85;;;26.60;33.10;;;;;;4893956;29;20166;-67
2022/05/28 10:05:17;;;;;;;15.68;3.58;;;26.70;34.60;;;;;;4894737;29;20226;-67
2022/05/28 10:07:48;;;;;;;18.02;3.88;;;26.70;34.00;;;;;;4860760;29;20162;-67
2022/05/28 10:10:31;;;;;;;18.88;4.35;;;26.50;34.20;;;;;;4892563;29;20100;-67
2022/05/28 10:13:16;;;;;;;14.45;3.85;;;26.50;34.20;;;;;;4860622;29;20556;-67
2022/05/28 10:15:51;;;;;;;18.52;4.35;;;26.50;34.30;;;;;;4894790;29;20087;-68
2022/05/28 10:18:22;;;;;;;24.38;4.25;;;26.40;34.30;;;;;;4880557;29;20095;-69
2022/05/28 10:21:18;;;;;;;18.92;4.15;;;26.40;35.30;;;;;;4935711;28;20075;-67
2022/05/28 10:23:52;;;;;;;21.48;4.75;;;26.40;34.30;;;;;;4950471;28;20071;-68
2022/05/28 10:26:22;;;;;;;20.95;4.65;;;26.40;34.90;;;;;;4948624;28;20074;-68
2022/05/28 10:28:51;;;;;;;16.23;4.30;;;26.30;34.00;;;;;;4951364;28;20120;-68
2022/05/28 10:31:37;;;;;;;25.42;4.53;;;26.10;33.60;;;;;;4952239;28;20526;-68
2022/05/28 10:34:05;;;;;;;22.77;4.43;;;26.10;34.30;;;;;;4951416;28;20083;-67
2022/05/28 10:36:35;;;;;;;19.38;4.65;;;26.10;34.10;;;;;;4950394;28;20169;-67
2022/05/28 10:39:20;;;;;;;21.67;4.75;;;26.10;34.50;;;;;;4950437;28;20093;-67
2022/05/28 10:41:52;;;;;;;18.67;5.40;;;26.10;35.30;;;;;;4952422;28;20074;-67
2022/05/28 10:44:19;;;;;;;20.63;5.38;;;26.10;35.60;;;;;;4948147;28;20071;-67
2022/05/28 10:46:59;;;;;;;19.27;7.32;;;26.10;36.00;;;;;;4937412;28;20083;-68
2022/05/28 10:49:50;;;;;;;27.95;9.38;;;26.00;35.60;;;;;;4950243;28;20165;-67
2022/05/28 10:52:28;;;;;;;29.98;9.65;;;25.90;34.70;;;;;;4951229;28;20102;-67
2022/05/28 10:55:38;;;;;;;29.00;9.57;;;25.90;34.70;;;;;;4951790;28;20087;-68
2022/05/28 10:58:17;;;;;;;25.95;10.30;;;25.90;35.20;;;;;;4956267;28;20112;-67
2022/05/28 11:01:39;;;;;;;24.20;7.40;;;25.90;35.60;;;;;;4949816;28;20090;-67
2022/05/28 11:04:31;;;;;;;17.80;6.22;;;25.60;34.90;;;;;;4844935;29;20088;-68
2022/05/28 11:07:21;;;;;;;18.13;4.00;;;25.60;36.70;;;;;;4865979;29;20116;-69
2022/05/28 11:10:16;;;;;;;22.27;4.05;;;25.60;36.20;;;;;;4840902;29;20087;-68
2022/05/28 11:12:45;;;;;;;19.42;3.42;;;25.60;36.20;;;;;;4871503;29;20449;-68
2022/05/28 11:15:39;;;;;;;25.92;4.00;;;25.60;36.20;;;;;;4857171;29;20136;-66
2022/05/28 11:18:26;;;;;;;21.60;3.60;;;25.60;36.50;;;;;;4841345;29;20076;-67
2022/05/28 11:21:11;;;;;;;23.27;4.10;;;25.50;36.70;;;;;;4848871;29;20533;-70
2022/05/28 11:24:02;;;;;;;19.92;3.38;;;25.50;36.60;;;;;;4845281;29;20129;-68
2022/05/28 11:26:42;;;;;;;23.25;4.05;;;25.20;36.80;;;;;;4862204;29;20089;-68
2022/05/28 11:29:33;;;;;;;20.38;4.10;;;25.30;37.70;;;;;;4859335;29;20222;-68
2022/05/28 11:32:02;;;;;;;22.50;3.70;;;25.20;36.50;;;;;;4858848;29;21250;-68
2022/05/28 11:34:40;;;;;;;23.63;4.10;;;25.10;37.10;;;;;;4860057;29;20468;-68
2022/05/28 11:37:32;;;;;;;20.88;4.10;;;25.00;36.80;;;;;;4860208;29;20080;-69
2022/05/28 11:40:05;;;;;;;23.55;4.43;;;24.90;37.10;;;;;;4889512;28;20110;-68
2022/05/28 11:42:51;;;;;;;31.15;4.47;;;24.90;37.90;;;;;;4952880;28;20098;-68
2022/05/28 11:45:42;;;;;;;31.88;5.00;;;24.90;37.90;;;;;;4955752;28;20445;-68
2022/05/28 11:48:24;;;;;;;23.38;4.43;;;24.90;38.10;;;;;;4942070;28;20215;-67
2022/05/28 11:54:17;;;;;;;32.72;4.90;;;24.70;39.20;;;;;;4954697;28;20603;-67
2022/05/28 11:56:49;;;;;;;22.00;5.47;;;24.70;39.30;;;;;;4953207;28;20178;-67
2022/05/28 11:59:22;;;;;;;21.33;4.78;;;24.60;39.30;;;;;;4936014;28;20146;-67
2022/05/28 12:02:04;;;;;;;27.20;4.78;;;24.60;39.90;;;;;;4953883;28;20453;-69
2022/05/28 12:04:37;;;;;;;17.50;4.55;;;24.50;39.50;;;;;;4939265;28;20138;-67
2022/05/28 12:07:24;;;;;;;28.17;5.22;;;24.50;40.00;;;;;;4956665;28;20066;-68
2022/05/28 12:09:51;;;;;;;32.78;4.55;;;24.50;39.30;;;;;;4952104;28;20161;-67
2022/05/28 12:12:58;;;;;;;22.42;4.40;;;24.50;40.20;;;;;;4957416;28;20081;-69
2022/05/28 12:15:34;;;;;;;20.05;5.15;;;24.40;39.80;;;;;;4958490;28;20544;-67
2022/05/28 12:18:10;;;;;;;24.13;4.68;;;24.40;39.90;;;;;;4956526;28;20078;-66
2022/05/28 12:20:59;;;;;;;28.52;5.00;;;24.20;40.50;;;;;;4959481;28;20146;-68
2022/05/28 12:23:34;;;;;;;21.60;4.88;;;24.20;40.80;;;;;;4956068;28;20561;-65
2022/05/28 12:26:11;;;;;;;31.60;5.10;;;24.30;40.80;;;;;;4943772;28;20075;-67
2022/05/28 12:28:49;;;;;;;24.45;4.60;;;24.30;40.60;;;;;;4964043;28;20126;-66
2022/05/28 12:31:28;;;;;;;23.05;4.70;;;24.20;40.60;;;;;;4951376;28;20173;-67
2022/05/28 12:34:20;;;;;;;40.28;6.18;;;24.10;40.90;;;;;;4960405;28;20095;-66
2022/05/28 12:36:50;;;;;;;22.58;4.43;;;24.10;41.20;;;;;;4976491;28;20085;-67
2022/05/28 12:39:44;;;;;;;20.00;4.60;;;24.00;41.50;;;;;;4974929;28;20553;-68
2022/05/28 12:42:30;;;;;;;23.85;4.72;;;23.90;41.10;;;;;;4943325;28;20070;-67
2022/05/28 12:44:58;;;;;;;32.88;6.10;;;23.70;41.10;;;;;;4957990;28;20165;-68
2022/05/28 12:47:30;;;;;;;39.28;5.65;;;23.70;41.60;;;;;;4956622;28;20609;-68
2022/05/28 12:50:16;;;;;;;35.17;5.43;;;23.70;41.00;;;;;;4956869;28;20140;-68
2022/05/28 12:53:09;;;;;;;23.65;5.28;;;23.70;42.10;;;;;;4969950;28;20078;-67
2022/05/28 12:55:38;;;;;;;38.08;5.53;;;23.60;40.90;;;;;;4956823;28;20441;-69
2022/05/28 12:58:08;;;;;;;24.35;5.03;;;23.60;40.60;;;;;;4940472;28;20094;-68
2022/05/28 13:00:51;;;;;;;26.20;4.75;;;23.70;41.50;;;;;;4956203;28;20176;-68
2022/05/28 13:03:20;;;;;;;21.52;5.50;;;23.80;41.20;;;;;;4955664;28;20074;-66
2022/05/28 13:06:00;;;;;;;38.45;5.32;;;23.60;39.50;;;;;;4957015;28;20569;-66
2022/05/28 13:08:30;;;;;;;23.35;4.43;;;23.60;40.10;;;;;;4956005;28;20169;-67
2022/05/28 13:10:59;;;;;;;24.05;4.38;;;23.70;40.40;;;;;;4956267;28;20085;-68
2022/05/28 13:13:28;;;;;;;26.33;5.07;;;23.80;41.20;;;;;;4954731;28;20625;-68